Time;durP1;ratioP1;P1;durP2;ratioP2;P2;SDS_P1;SDS_P2;PMS_P1;PMS_P2;Temp;Humidity;BMP_temperature;BMP_pressure;BME280_temperature;BME280_humidity;BME280_pressure;Samples;Min_cycle;Max_cycle;Signal;HPM_P1;HPM_P2
2022/01/23 19:35:59;;;;;;;4.32;1.20;;;22.70;99.90;;;;;;5045911;28;20401;-86
2022/01/23 19:38:26;;;;;;;3.58;1.20;;;21.80;99.90;;;;;;5032068;28;20052;-92
2022/01/23 19:41:06;;;;;;;2.17;0.90;;;22.10;99.90;;;;;;5045161;28;20032;-81
2022/01/23 20:00:26;;;;;;;7.95;4.18;;;8.00;99.90;;;;;;5061289;27;1878325;-74
2022/01/23 20:02:52;;;;;;;5.10;3.17;;;15.50;99.90;;;;;;5096181;28;20031;-74
2022/01/23 20:11:19;;;;;;;4.82;2.72;;;20.00;99.90;;;;;;5094790;22;1198941;-44
2022/01/23 20:13:45;;;;;;;6.85;2.90;;;20.80;99.90;;;;;;5096228;28;20036;-47
2022/01/23 20:29:37;;;;;;;39.05;22.48;;;17.30;99.90;;;;;;5110473;27;20501;-52
2022/01/23 20:32:03;;;;;;;94.95;23.08;;;6.10;99.90;;;;;;5030610;28;20053;-70
2022/01/23 20:34:30;;;;;;;37.40;20.45;;;5.80;99.90;;;;;;5056398;28;20036;-57
2022/01/23 20:37:00;;;;;;;58.95;21.55;;;6.60;99.90;;;;;;5056219;28;20033;-60
2022/01/23 20:39:26;;;;;;;23.17;14.15;;;7.50;99.90;;;;;;5068819;28;20037;-86
2022/01/23 20:41:52;;;;;;;12.13;7.10;;;7.80;99.90;;;;;;4851806;28;70188;-85
2022/01/23 20:44:18;;;;;;;10.20;5.85;;;6.60;99.90;;;;;;5009900;28;20080;-85
2022/01/23 20:46:43;;;;;;;9.68;5.00;;;6.10;99.90;;;;;;5060738;28;20033;-82
2022/01/23 20:49:10;;;;;;;7.22;4.38;;;5.90;99.90;;;;;;5075015;28;20029;-83
2022/01/23 20:51:37;;;;;;;6.03;3.35;;;5.70;99.90;;;;;;5055261;28;20093;-81
2022/01/23 20:54:05;;;;;;;5.85;3.40;;;5.60;99.90;;;;;;5061112;28;20037;-82
2022/01/23 20:56:31;;;;;;;5.88;2.90;;;5.60;99.90;;;;;;5059811;28;20039;-83
2022/01/23 20:58:57;;;;;;;5.90;2.70;;;5.50;99.90;;;;;;5070739;28;20044;-83
2022/01/23 21:01:23;;;;;;;4.75;2.45;;;5.40;99.90;;;;;;5071168;28;20049;-82
2022/01/23 21:03:50;;;;;;;5.82;2.55;;;5.30;99.90;;;;;;5088762;28;20033;-84
2022/01/23 21:06:22;;;;;;;5.57;2.58;;;5.30;99.90;;;;;;5059014;28;20036;-86
2022/01/23 21:39:02;;;;;;;3.80;1.63;;;5.00;99.90;;;;;;4984713;28;20077;-82
2022/01/23 21:41:12;;;;;;;3.53;1.40;;;5.00;99.90;;;;;;4985498;28;20058;-82
2022/01/23 21:43:38;;;;;;;3.75;1.55;;;5.00;99.90;;;;;;4968807;28;20026;-81
2022/01/23 21:46:04;;;;;;;3.00;1.20;;;5.00;99.90;;;;;;4985438;28;20049;-82
2022/01/23 21:48:30;;;;;;;2.95;1.33;;;5.00;99.90;;;;;;4999554;28;20047;-82
2022/01/23 21:50:55;;;;;;;3.60;1.58;;;5.00;99.90;;;;;;4983651;28;20133;-82
2022/01/23 21:53:22;;;;;;;3.72;1.38;;;5.00;99.90;;;;;;5016216;28;20037;-82
2022/01/23 21:55:48;;;;;;;3.78;1.63;;;5.00;99.90;;;;;;5077919;28;20040;-82
2022/01/23 21:58:14;;;;;;;2.05;0.80;;;5.00;99.90;;;;;;5058482;28;20037;-82
2022/01/23 22:00:40;;;;;;;5.00;1.33;;;5.00;99.90;;;;;;5055394;28;20025;-82
2022/01/23 22:03:06;;;;;;;3.58;1.40;;;5.00;99.90;;;;;;5040382;28;20044;-82
2022/01/23 22:05:31;;;;;;;2.78;1.50;;;5.00;99.90;;;;;;5054772;28;20025;-82
2022/01/23 22:07:58;;;;;;;3.22;1.67;;;4.90;99.90;;;;;;5059320;28;20025;-82
2022/01/23 22:13:10;;;;;;;3.97;1.50;;;4.90;99.90;;;;;;5063496;28;20053;-82
2022/01/23 22:15:59;;;;;;;3.80;1.52;;;4.90;99.90;;;;;;5062332;28;20029;-82
2022/01/23 22:18:29;;;;;;;3.42;1.73;;;4.90;99.90;;;;;;5060338;28;20038;-82
2022/01/23 22:20:57;;;;;;;3.40;1.27;;;4.90;99.90;;;;;;5058298;28;20049;-82
2022/01/23 22:23:40;;;;;;;3.42;1.25;;;4.90;99.90;;;;;;5046089;28;20021;-82
2022/01/23 22:28:55;;;;;;;3.03;1.20;;;4.80;99.90;;;;;;5074430;28;20056;-81
2022/01/23 22:31:21;;;;;;;4.50;1.98;;;4.80;99.90;;;;;;5058099;28;20030;-82
2022/01/23 22:33:47;;;;;;;3.55;1.63;;;4.80;99.90;;;;;;5053992;28;20027;-82
2022/01/23 22:36:14;;;;;;;4.15;1.73;;;4.80;99.90;;;;;;5045352;28;20032;-82
2022/01/23 22:38:42;;;;;;;4.40;1.85;;;4.80;99.90;;;;;;5059972;28;20045;-82
2022/01/23 22:41:09;;;;;;;3.85;1.35;;;4.80;99.90;;;;;;5045082;28;20036;-82
2022/01/23 22:43:44;;;;;;;3.45;1.40;;;4.80;99.90;;;;;;5057272;28;20123;-82
2022/01/23 22:46:30;;;;;;;4.22;2.08;;;4.80;99.90;;;;;;5062061;28;20059;-82
2022/01/23 22:48:59;;;;;;;4.38;1.60;;;4.80;99.90;;;;;;5061649;28;20386;-82
2022/01/23 22:51:26;;;;;;;5.20;2.05;;;4.80;99.90;;;;;;5045733;28;20029;-82
2022/01/23 22:53:52;;;;;;;5.45;2.40;;;4.80;99.90;;;;;;5058879;28;20029;-81
2022/01/23 22:56:18;;;;;;;6.10;2.85;;;4.80;99.90;;;;;;5054869;28;20025;-81
2022/01/23 22:58:44;;;;;;;7.72;3.63;;;4.80;99.90;;;;;;5060775;28;20037;-82
2022/01/23 23:01:09;;;;;;;8.80;4.47;;;4.80;99.90;;;;;;5058959;28;20056;-82
2022/01/23 23:03:35;;;;;;;9.00;4.30;;;4.90;99.90;;;;;;5040955;28;20037;-82
2022/01/23 23:06:03;;;;;;;10.35;4.70;;;4.90;99.90;;;;;;5061700;28;20179;-82
2022/01/23 23:08:29;;;;;;;9.38;4.30;;;4.90;99.90;;;;;;5044800;28;20037;-82
2022/01/23 23:10:56;;;;;;;10.63;4.65;;;4.80;99.90;;;;;;5057806;28;20127;-82
2022/01/23 23:13:22;;;;;;;9.10;4.20;;;4.90;99.90;;;;;;5056884;28;20064;-81
2022/01/23 23:18:41;;;;;;;11.63;5.07;;;4.90;99.90;;;;;;5063712;28;20063;-82
2022/01/23 23:21:07;;;;;;;12.35;5.38;;;4.90;99.90;;;;;;5070281;28;20037;-81
2022/01/23 23:23:36;;;;;;;11.90;5.22;;;4.90;99.90;;;;;;5056327;28;20026;-81
2022/01/23 23:26:03;;;;;;;10.90;5.85;;;4.80;99.90;;;;;;5059357;28;20037;-81
2022/01/23 23:28:28;;;;;;;12.20;5.18;;;4.90;99.90;;;;;;5060797;28;20049;-81
2022/01/23 23:30:54;;;;;;;12.00;5.65;;;4.90;99.90;;;;;;5054894;28;20484;-81
2022/01/23 23:33:21;;;;;;;13.02;4.75;;;4.90;99.90;;;;;;5054320;28;20025;-81
2022/01/23 23:35:48;;;;;;;9.90;5.22;;;4.90;99.90;;;;;;5056139;28;20029;-82
2022/01/23 23:38:14;;;;;;;12.10;5.35;;;4.90;99.90;;;;;;5057085;28;20049;-82
2022/01/23 23:40:49;;;;;;;14.10;6.20;;;4.80;99.90;;;;;;5043553;28;20040;-82
2022/01/23 23:43:22;;;;;;;10.27;5.32;;;4.90;99.90;;;;;;5061074;28;20041;-82
2022/01/23 23:45:47;;;;;;;11.75;5.75;;;4.80;99.90;;;;;;5036709;28;20036;-81
2022/01/23 23:48:15;;;;;;;11.15;5.28;;;4.80;99.90;;;;;;5054868;28;20029;-82
2022/01/23 23:50:42;;;;;;;12.18;5.75;;;4.80;99.90;;;;;;5059285;28;20036;-82
2022/01/23 23:53:08;;;;;;;16.15;7.85;;;4.80;99.90;;;;;;5056079;28;20096;-82
2022/01/23 23:55:33;;;;;;;14.38;6.60;;;4.80;99.90;;;;;;5071586;28;20041;-82
2022/01/23 23:57:59;;;;;;;12.25;6.25;;;4.80;99.90;;;;;;5052815;28;20045;-82
